Athens, PA

2:12 PM EST on November 28, 2014 (GMT -0500)
Walker Hill Rd | Change Station
CLOSE
Current Station
Personal Weather Station
Location: Waverly, NY
Elevation: 1358 ft
Nearby Weather Stations

Elev 1358 ft 42.04 °N, 76.54 °W | Updated 1 second ago

Mostly Cloudy
Mostly Cloudy
25.3 °F
Feels Like 19 °F
N
5.2
Wind Variable Wind from SW
Gusts 6.4 mph

Today
High -- | Low -- °F
--% Chance of Precip.
Yesterday
High -- | Low -- °F
Precip. -- in
7:11 AM 4:36 PM
Waxing Crescent, 43% visible
Pressure 30.22 in
Visibility 10.0 miles
Clouds Mostly Cloudy 4000 ft
Windchill 19 °F
Dew Point 11 °F
Humidity 54%
Rainfall 0.00 in
Snow Depth Not available.
UV 0.0 out of 12
Pollen .10 out of 12
Air Quality Not available.
Flu Activity Not available.
METAR KELM 281853Z 29008KT 10SM BKN040 M02/M11 A3018 RMK AO2 SLP232 T10171106

More Conditions Fewer Conditions

Pressure 30.22 in
Visibility 10.0 miles
Clouds Mostly Cloudy 4000 ft
Windchill 19 °F
Dew Point 11 °F
Humidity 54%
Rainfall 0.00 in
Snow Depth Not available.
UV 0.0 out of 12
Pollen .10 out of 12
Air Quality Not available.
Flu Activity Not available.
METAR KELM 281853Z 29008KT 10SM BKN040 M02/M11 A3018 RMK AO2 SLP232 T10171106

More Conditions Fewer Conditions

10-Day Weather Forecast

Almanac

Astronomy

Nov. 28, 2014 Rise Set
Actual Time
Civil Twilight
Nautical Twilight
Astronomical Twilight
Moon
Length of Visible Light
Length of Day
Tomorrow will be .
, % of the Moon is Illuminated

Today's Extremes

State Highs State Lows

Community

WunderPhotos

Upload Photos

1,774,262 photos uploaded!

WunderBlogs® & News

Nearby

Air Quality

  Air Quality AQ Index Pollutant
Not available.

Snow Depth

Station Depth Elevation

Earthquake Activity

City Distance Mag. Time & Date
Minimum magnitude displayed is 2.5.

Coastal Water Temperatures

Place Temperature

Nearby Weather Stations